createdAt,value
2019-05-28T00:00:31.691Z,5.50
2019-05-28T00:01:31.686Z,5.10
2019-05-28T00:02:31.676Z,5.60
2019-05-28T00:03:31.672Z,5.20
2019-05-28T00:04:31.654Z,5.00
2019-05-28T00:05:31.636Z,5.50
2019-05-28T00:06:31.635Z,5.20
2019-05-28T00:07:31.618Z,5.50
2019-05-28T00:08:31.630Z,5.60
2019-05-28T00:09:31.590Z,5.30
2019-05-28T00:10:31.597Z,5.20
2019-05-28T00:11:31.574Z,5.70
2019-05-28T00:12:31.544Z,4.90
2019-05-28T00:13:31.578Z,5.10
2019-05-28T00:14:31.548Z,5.60
2019-05-28T00:15:31.529Z,5.40
2019-05-28T00:16:31.508Z,5.60
2019-05-28T00:17:31.506Z,5.10
2019-05-28T00:18:31.504Z,5.70
2019-05-28T00:19:31.493Z,5.30
2019-05-28T00:20:31.472Z,5.20
2019-05-28T00:21:31.464Z,5.70
2019-05-28T00:22:31.439Z,5.50
2019-05-28T00:23:31.466Z,6.10
2019-05-28T00:24:31.431Z,5.50
2019-05-28T00:25:31.412Z,5.70
2019-05-28T00:26:31.408Z,6.00
2019-05-28T00:27:31.396Z,5.90
2019-05-28T00:28:31.397Z,5.70
2019-05-28T00:29:31.367Z,5.90
2019-05-28T00:30:31.365Z,5.80
2019-05-28T00:31:31.352Z,5.90
2019-05-28T00:32:31.348Z,5.60
2019-05-28T00:33:31.340Z,6.10
2019-05-28T00:34:31.329Z,5.80
2019-05-28T00:35:31.307Z,6.20
2019-05-28T00:36:31.318Z,6.30
2019-05-28T00:37:31.277Z,5.70
2019-05-28T00:38:31.290Z,6.00
2019-05-28T00:39:31.257Z,6.00
2019-05-28T00:40:31.251Z,5.90
2019-05-28T00:41:31.249Z,6.00
2019-05-28T00:42:31.236Z,6.00
2019-05-28T00:43:31.225Z,6.10
2019-05-28T00:44:31.213Z,5.90
2019-05-28T00:45:31.191Z,6.40
2019-05-28T00:46:31.181Z,6.10
2019-05-28T00:47:31.166Z,5.40
2019-05-28T00:48:31.170Z,6.50
2019-05-28T00:49:31.155Z,6.10
2019-05-28T00:50:31.145Z,6.60
2019-05-28T00:51:31.126Z,6.80
2019-05-28T00:52:31.108Z,6.90
2019-05-28T00:53:31.127Z,6.50
2019-05-28T00:54:31.097Z,6.80
2019-05-28T00:55:31.095Z,6.80
2019-05-28T00:56:31.063Z,6.90
2019-05-28T00:57:31.053Z,6.50
2019-05-28T00:58:31.075Z,6.50
2019-05-28T00:59:31.045Z,6.70
2019-05-28T01:00:37.016Z,6.50
2019-05-28T01:01:32.007Z,6.70
2019-05-28T01:02:30.993Z,6.50
2019-05-28T01:03:31.007Z,6.60
2019-05-28T01:04:30.994Z,6.40
2019-05-28T01:05:31.039Z,6.50
2019-05-28T01:06:30.978Z,6.30
2019-05-28T01:07:30.949Z,6.40
2019-05-28T01:08:30.935Z,6.30
2019-05-28T01:09:30.947Z,6.20
2019-05-28T01:10:30.907Z,6.30
2019-05-28T01:11:30.899Z,5.70
2019-05-28T01:12:30.894Z,5.70
2019-05-28T01:13:30.886Z,5.30
2019-05-28T01:14:30.909Z,5.30
2019-05-28T01:15:30.855Z,5.60
2019-05-28T01:16:30.852Z,5.30
2019-05-28T01:17:30.836Z,5.70
2019-05-28T01:18:30.831Z,5.10
2019-05-28T01:19:30.836Z,4.90
2019-05-28T01:20:30.796Z,4.40
2019-05-28T01:21:30.795Z,5.00
2019-05-28T01:22:30.778Z,4.60
2019-05-28T01:23:30.766Z,4.40
2019-05-28T01:24:30.790Z,4.50
2019-05-28T01:25:30.752Z,4.60
2019-05-28T01:26:30.746Z,4.20
2019-05-28T01:27:30.733Z,4.10
2019-05-28T01:28:30.718Z,3.90
2019-05-28T01:29:30.748Z,4.00
2019-05-28T01:30:30.702Z,3.60
2019-05-28T01:31:30.678Z,3.50
2019-05-28T01:32:30.669Z,3.70
2019-05-28T01:33:30.666Z,3.80
2019-05-28T01:34:30.672Z,3.50
2019-05-28T01:35:30.642Z,3.60
2019-05-28T01:36:30.632Z,3.60
2019-05-28T01:37:30.649Z,3.50
2019-05-28T01:38:30.605Z,3.50
2019-05-28T01:39:30.624Z,3.40
2019-05-28T01:40:30.577Z,3.60
2019-05-28T01:41:30.566Z,3.40
2019-05-28T01:42:30.562Z,3.50
2019-05-28T01:43:30.540Z,3.80
2019-05-28T01:44:30.570Z,3.40
2019-05-28T01:45:30.525Z,3.40
2019-05-28T01:46:30.537Z,3.50
2019-05-28T01:47:30.505Z,3.40
2019-05-28T01:48:30.498Z,3.40
2019-05-28T01:49:30.506Z,3.70
2019-05-28T01:50:30.467Z,3.40
2019-05-28T01:51:30.477Z,4.00
2019-05-28T01:52:30.475Z,3.40
2019-05-28T01:53:30.442Z,3.40
2019-05-28T01:54:30.460Z,3.60
2019-05-28T01:55:30.413Z,3.40
2019-05-28T01:56:30.416Z,3.90
2019-05-28T01:57:30.411Z,3.30
2019-05-28T01:58:30.377Z,3.40
2019-05-28T01:59:30.396Z,3.20
2019-05-28T02:00:30.354Z,3.50
2019-05-28T02:01:30.357Z,3.30
2019-05-28T02:02:30.349Z,3.30
2019-05-28T02:03:30.320Z,3.50
2019-05-28T02:04:30.331Z,3.40
2019-05-28T02:05:30.312Z,3.00
2019-05-28T02:06:30.294Z,3.40
2019-05-28T02:07:30.283Z,3.40
2019-05-28T02:08:30.273Z,3.50
2019-05-28T02:09:30.258Z,3.60
2019-05-28T02:10:30.263Z,3.70
2019-05-28T02:11:30.232Z,3.40
2019-05-28T02:12:30.225Z,3.10
2019-05-28T02:13:30.213Z,3.30
2019-05-28T02:14:30.225Z,3.80
2019-05-28T02:15:30.244Z,3.70
2019-05-28T02:16:30.178Z,3.70
2019-05-28T02:17:30.163Z,3.50
2019-05-28T02:18:30.155Z,3.50
2019-05-28T02:19:30.154Z,3.60
2019-05-28T02:20:30.163Z,3.50
2019-05-28T02:21:30.125Z,3.30
2019-05-28T02:22:30.142Z,3.10
2019-05-28T02:23:30.144Z,3.20
2019-05-28T02:24:30.089Z,3.60
2019-05-28T02:25:30.512Z,3.30
2019-05-28T02:26:30.071Z,3.40
2019-05-28T02:27:30.069Z,3.60
2019-05-28T02:28:30.051Z,3.80
2019-05-28T02:29:30.029Z,3.30
2019-05-28T02:30:30.045Z,3.70
2019-05-28T02:31:30.025Z,3.10
2019-05-28T02:32:30.008Z,3.80
2019-05-28T02:33:30.025Z,3.70
2019-05-28T02:34:29.993Z,3.60
2019-05-28T02:35:29.986Z,3.30
2019-05-28T02:36:29.959Z,4.30
2019-05-28T02:37:29.942Z,3.90
2019-05-28T02:38:29.960Z,3.50
2019-05-28T02:39:29.914Z,3.50
2019-05-28T02:40:29.941Z,3.90
2019-05-28T02:41:29.901Z,3.80
2019-05-28T02:42:29.880Z,4.10
2019-05-28T02:43:29.880Z,3.70
2019-05-28T02:44:29.878Z,3.70
2019-05-28T02:45:29.879Z,3.70
2019-05-28T02:46:29.832Z,3.90
2019-05-28T02:47:29.846Z,3.60
2019-05-28T02:48:29.814Z,3.80
2019-05-28T02:49:29.816Z,3.70
2019-05-28T02:50:29.818Z,3.60
2019-05-28T02:51:29.805Z,3.90
2019-05-28T02:52:31.927Z,3.50
2019-05-28T02:53:29.774Z,3.90
2019-05-28T02:54:29.772Z,3.70
2019-05-28T02:55:29.760Z,3.80
2019-05-28T02:56:29.734Z,3.60
2019-05-28T02:57:29.722Z,3.80
2019-05-28T02:58:29.711Z,3.70
2019-05-28T02:59:29.704Z,3.90
2019-05-28T03:00:29.704Z,3.70
2019-05-28T03:01:42.930Z,3.60
2019-05-28T03:02:30.674Z,3.50
2019-05-28T03:03:29.655Z,3.90
2019-05-28T03:04:29.650Z,3.50
2019-05-28T03:05:29.667Z,4.00
2019-05-28T03:06:29.627Z,3.70
2019-05-28T03:07:29.630Z,3.60
2019-05-28T03:08:29.632Z,3.90
2019-05-28T03:09:29.592Z,4.20
2019-05-28T03:10:57.608Z,4.10
2019-05-28T03:11:30.569Z,3.70
2019-05-28T03:12:29.562Z,3.70
2019-05-28T03:13:29.540Z,4.20
2019-05-28T03:14:29.530Z,3.70
2019-05-28T03:15:29.544Z,3.80
2019-05-28T03:16:29.505Z,4.20
2019-05-28T03:17:29.506Z,3.70
2019-05-28T03:18:29.487Z,3.90
2019-05-28T03:19:29.474Z,4.10
2019-05-28T03:20:29.491Z,4.10
2019-05-28T03:21:29.457Z,3.90
2019-05-28T03:22:29.452Z,4.10
2019-05-28T03:23:29.448Z,4.00
2019-05-28T03:24:29.412Z,3.90
2019-05-28T03:25:29.443Z,3.80
2019-05-28T03:26:29.395Z,3.90
2019-05-28T03:27:29.392Z,3.60
2019-05-28T03:28:29.367Z,3.90
2019-05-28T03:29:29.357Z,4.20
2019-05-28T03:30:29.396Z,3.90
2019-05-28T03:31:29.346Z,3.80
2019-05-28T03:32:29.326Z,4.10
2019-05-28T03:33:29.335Z,3.80
2019-05-28T03:34:29.312Z,3.80
2019-05-28T03:35:29.295Z,3.40
2019-05-28T03:36:29.302Z,3.80
2019-05-28T03:37:29.279Z,3.70
2019-05-28T03:38:29.259Z,3.60
2019-05-28T03:39:29.259Z,4.00
2019-05-28T03:40:29.261Z,3.90
2019-05-28T03:41:29.255Z,3.90
2019-05-28T03:42:29.221Z,3.80
2019-05-28T03:43:29.208Z,4.00
2019-05-28T03:44:29.201Z,3.60
2019-05-28T03:45:29.183Z,3.80
2019-05-28T03:46:29.191Z,4.00
2019-05-28T03:47:29.173Z,3.70
2019-05-28T03:48:29.157Z,4.10
2019-05-28T03:49:29.143Z,3.80
2019-05-28T03:50:29.145Z,4.20
2019-05-28T03:51:29.133Z,3.90
2019-05-28T03:52:29.117Z,3.90
2019-05-28T03:53:29.096Z,4.30
2019-05-28T03:54:29.091Z,4.40
2019-05-28T03:55:29.074Z,3.80
2019-05-28T03:56:29.091Z,4.10
2019-05-28T03:57:29.050Z,4.00
2019-05-28T03:58:29.103Z,3.70
2019-05-28T03:59:29.051Z,3.60
2019-05-28T04:00:29.022Z,3.90
2019-05-28T04:01:29.037Z,4.00
2019-05-28T04:02:28.993Z,4.00
2019-05-28T04:03:29.044Z,3.70
2019-05-28T04:04:28.973Z,3.90
2019-05-28T04:05:28.999Z,3.70
2019-05-28T04:06:28.980Z,3.90
2019-05-28T04:07:29.002Z,4.00
2019-05-28T04:08:28.928Z,3.90
2019-05-28T04:09:28.932Z,3.50
2019-05-28T04:10:28.911Z,4.00
2019-05-28T04:11:43.925Z,4.10
2019-05-28T04:12:29.882Z,4.20
2019-05-28T04:13:28.873Z,4.00
2019-05-28T04:14:28.861Z,3.80
2019-05-28T04:15:28.863Z,4.00
2019-05-28T04:16:28.858Z,4.20
2019-05-28T04:17:28.839Z,3.60
2019-05-28T04:18:28.828Z,3.90
2019-05-28T04:19:28.823Z,4.10
2019-05-28T04:20:28.800Z,3.80
2019-05-28T04:21:28.807Z,4.60
2019-05-28T04:22:28.766Z,3.60
2019-05-28T04:23:28.765Z,3.90
2019-05-28T04:24:28.758Z,3.70
2019-05-28T04:25:28.745Z,3.80
2019-05-28T04:26:28.788Z,3.70
2019-05-28T04:27:28.734Z,4.30
2019-05-28T04:28:28.708Z,4.00
2019-05-28T04:29:28.698Z,3.90
2019-05-28T04:30:28.699Z,4.00
2019-05-28T04:31:28.718Z,4.40
2019-05-28T04:32:39.963Z,4.00
2019-05-28T04:33:29.716Z,4.10
2019-05-28T04:34:28.639Z,4.10
2019-05-28T04:35:28.632Z,3.60
2019-05-28T04:36:28.621Z,3.70
2019-05-28T04:37:28.655Z,3.70
2019-05-28T04:38:28.608Z,3.90
2019-05-28T04:39:28.595Z,4.00
2019-05-28T04:40:28.583Z,4.40
2019-05-28T04:41:28.569Z,4.00
2019-05-28T04:42:28.591Z,3.70
2019-05-28T04:43:28.556Z,4.30
2019-05-28T04:44:28.540Z,4.10
2019-05-28T04:45:28.524Z,4.00
2019-05-28T04:46:28.514Z,4.00
2019-05-28T04:47:28.522Z,3.90
2019-05-28T04:48:28.531Z,4.00
2019-05-28T04:49:28.498Z,3.90
2019-05-28T04:50:28.467Z,4.10
2019-05-28T04:51:28.464Z,3.90
2019-05-28T04:52:30.691Z,4.10
2019-05-28T04:53:28.435Z,3.90
2019-05-28T04:54:28.444Z,4.30
2019-05-28T04:55:28.403Z,4.20
2019-05-28T04:56:28.405Z,3.90
2019-05-28T04:57:28.426Z,4.00
2019-05-28T04:58:28.381Z,4.10
2019-05-28T04:59:28.366Z,4.20
2019-05-28T05:00:28.351Z,4.70
2019-05-28T05:01:28.346Z,4.30
2019-05-28T05:02:28.369Z,4.10
2019-05-28T05:03:28.318Z,4.00
2019-05-28T05:04:28.309Z,4.40
2019-05-28T05:05:28.303Z,4.10
2019-05-28T05:06:28.292Z,3.90
2019-05-28T05:07:28.303Z,4.30
2019-05-28T05:08:28.263Z,4.20
2019-05-28T05:09:28.256Z,4.50
2019-05-28T05:10:28.243Z,4.20
2019-05-28T05:11:28.249Z,4.50
2019-05-28T05:12:28.252Z,4.50
2019-05-28T05:13:28.213Z,3.90
2019-05-28T05:14:28.265Z,4.40
2019-05-28T05:15:28.191Z,3.90
2019-05-28T05:16:28.180Z,4.20
2019-05-28T05:17:28.204Z,3.90
2019-05-28T05:18:28.159Z,4.60
2019-05-28T05:19:28.144Z,4.20
2019-05-28T05:20:28.132Z,4.10
2019-05-28T05:21:28.117Z,3.90
2019-05-28T05:22:28.130Z,4.20
2019-05-28T05:23:28.099Z,4.30
2019-05-28T05:24:28.089Z,3.70
2019-05-28T05:25:28.084Z,4.00
2019-05-28T05:26:28.060Z,4.40
2019-05-28T05:27:28.072Z,4.10
2019-05-28T05:28:28.055Z,4.40
2019-05-28T05:29:28.041Z,4.20
2019-05-28T05:30:28.028Z,4.20
2019-05-28T05:31:28.026Z,4.20
2019-05-28T05:32:28.029Z,4.00
2019-05-28T05:33:27.998Z,4.40
2019-05-28T05:34:27.970Z,4.40
2019-05-28T05:35:27.985Z,4.30
2019-05-28T05:36:27.961Z,3.90
2019-05-28T05:37:27.977Z,4.20
2019-05-28T05:38:28.042Z,4.70
2019-05-28T05:39:27.939Z,4.20
2019-05-28T05:40:27.920Z,4.30
2019-05-28T05:41:27.916Z,4.40
2019-05-28T05:42:27.892Z,4.40
2019-05-28T05:43:27.909Z,4.60
2019-05-28T05:44:27.871Z,4.20
2019-05-28T05:45:27.890Z,5.00
2019-05-28T05:46:27.849Z,4.70
2019-05-28T05:47:27.878Z,4.40
2019-05-28T05:48:27.847Z,4.50
2019-05-28T05:49:27.805Z,3.80
2019-05-28T05:50:27.794Z,4.20
2019-05-28T05:51:27.789Z,4.50
2019-05-28T05:52:27.776Z,5.00
2019-05-28T05:53:27.803Z,4.50
2019-05-28T05:54:27.773Z,4.30
2019-05-28T05:55:27.739Z,4.00
2019-05-28T05:56:27.767Z,4.60
2019-05-28T05:57:27.728Z,4.40
2019-05-28T05:58:27.722Z,4.60
2019-05-28T05:59:27.756Z,4.20
2019-05-28T06:00:27.693Z,3.90
2019-05-28T06:01:27.679Z,4.10
2019-05-28T06:02:27.661Z,4.50
2019-05-28T06:03:39.782Z,4.00
2019-05-28T06:04:28.643Z,4.60
2019-05-28T06:05:27.630Z,4.40
2019-05-28T06:06:27.629Z,4.60
2019-05-28T06:07:27.644Z,4.30
2019-05-28T06:08:27.629Z,4.30
2019-05-28T06:09:27.590Z,4.30
2019-05-28T06:10:27.582Z,4.10
2019-05-28T06:11:27.572Z,3.70
2019-05-28T06:12:27.544Z,5.00
2019-05-28T06:13:27.574Z,4.40
2019-05-28T06:14:27.528Z,4.70
2019-05-28T06:15:27.517Z,4.10
2019-05-28T06:16:27.521Z,4.00
2019-05-28T06:17:27.498Z,5.00
2019-05-28T06:18:27.517Z,3.90
2019-05-28T06:19:27.474Z,4.60
2019-05-28T06:20:27.474Z,7.00
2019-05-28T06:21:27.442Z,9.30
2019-05-28T06:22:27.443Z,5.90
2019-05-28T06:23:27.490Z,4.30
2019-05-28T06:24:27.435Z,4.40
2019-05-28T06:25:27.602Z,4.50
2019-05-28T06:26:27.414Z,4.30
2019-05-28T06:27:27.377Z,4.10
2019-05-28T06:28:27.416Z,4.10
2019-05-28T06:29:27.359Z,4.00
2019-05-28T06:30:27.353Z,3.80
2019-05-28T06:31:27.359Z,4.50
2019-05-28T06:32:27.377Z,4.20
2019-05-28T06:33:27.371Z,3.90
2019-05-28T06:34:27.317Z,4.90
2019-05-28T06:35:27.299Z,4.00
2019-05-28T06:36:27.293Z,3.90
2019-05-28T06:37:27.353Z,3.60
2019-05-28T06:38:27.319Z,4.00
2019-05-28T06:39:27.265Z,4.10
2019-05-28T06:40:27.245Z,3.60
2019-05-28T06:41:27.231Z,3.50
2019-05-28T06:42:27.228Z,3.90
2019-05-28T06:43:27.232Z,3.50
2019-05-28T06:44:27.198Z,3.50
2019-05-28T06:45:27.187Z,3.80
2019-05-28T06:46:27.222Z,3.50
2019-05-28T06:47:27.169Z,3.50
2019-05-28T06:48:27.181Z,3.60
2019-05-28T06:49:27.127Z,3.60
2019-05-28T06:50:27.134Z,4.00
2019-05-28T06:51:27.131Z,3.40
2019-05-28T06:52:27.110Z,3.40
2019-05-28T06:53:27.129Z,3.70
2019-05-28T06:54:27.097Z,3.40
2019-05-28T06:55:27.075Z,3.20
2019-05-28T06:56:27.061Z,3.60
2019-05-28T06:57:27.060Z,3.40
2019-05-28T06:58:38.851Z,3.30
2019-05-28T06:59:28.130Z,3.70
2019-05-28T07:00:27.059Z,3.50
2019-05-28T07:01:28.549Z,3.70
2019-05-28T07:02:26.997Z,3.30
2019-05-28T07:03:27.047Z,3.00
2019-05-28T07:04:32.895Z,3.40
2019-05-28T07:05:27.974Z,3.20
2019-05-28T07:06:26.953Z,3.10
2019-05-28T07:07:26.956Z,3.10
2019-05-28T07:08:26.957Z,3.10
2019-05-28T07:09:26.929Z,2.90
2019-05-28T07:10:26.923Z,3.50
2019-05-28T07:11:26.912Z,2.80
2019-05-28T07:12:26.891Z,3.00
2019-05-28T07:13:26.891Z,3.00
2019-05-28T07:14:26.858Z,3.10
2019-05-28T07:15:26.852Z,3.00
2019-05-28T07:16:26.843Z,3.20
2019-05-28T07:17:26.834Z,3.00
2019-05-28T07:18:26.839Z,2.70
2019-05-28T07:19:26.800Z,3.50
2019-05-28T07:20:26.791Z,3.00
2019-05-28T07:21:26.787Z,3.10
2019-05-28T07:22:26.772Z,3.30
2019-05-28T07:23:26.776Z,3.30
2019-05-28T07:24:26.766Z,3.30
2019-05-28T07:25:26.748Z,3.20
2019-05-28T07:26:26.728Z,3.00
2019-05-28T07:27:26.734Z,3.50
2019-05-28T07:28:26.729Z,3.00
2019-05-28T07:29:26.724Z,3.40
2019-05-28T07:30:26.682Z,3.20
2019-05-28T07:31:26.692Z,3.20
2019-05-28T07:32:26.663Z,3.30
2019-05-28T07:33:27.138Z,3.30
2019-05-28T07:34:30.785Z,3.20
2019-05-28T07:35:26.665Z,3.20
2019-05-28T07:36:26.617Z,3.20
2019-05-28T07:37:26.618Z,3.40
2019-05-28T07:38:26.629Z,3.30
2019-05-28T07:39:26.585Z,3.30
2019-05-28T07:40:31.674Z,3.50
2019-05-28T07:41:27.571Z,3.60
2019-05-28T07:42:32.545Z,3.40
2019-05-28T07:43:27.563Z,3.50
2019-05-28T07:44:26.543Z,3.80
2019-05-28T07:45:26.521Z,3.30
2019-05-28T07:46:26.521Z,3.50
2019-05-28T07:47:26.503Z,3.70
2019-05-28T07:48:26.552Z,3.60
2019-05-28T07:49:26.488Z,3.30
2019-05-28T07:50:26.460Z,3.30
2019-05-28T07:51:26.451Z,3.70
2019-05-28T07:52:26.454Z,3.50
2019-05-28T07:53:39.524Z,3.70
2019-05-28T07:54:27.434Z,3.70
2019-05-28T07:55:26.408Z,3.30
2019-05-28T07:56:26.398Z,4.00
2019-05-28T07:57:26.429Z,3.50
2019-05-28T07:58:26.375Z,3.60
2019-05-28T07:59:26.404Z,3.30
2019-05-28T08:00:26.355Z,3.20
2019-05-28T08:01:26.356Z,3.40
2019-05-28T08:02:26.335Z,3.40
2019-05-28T08:03:26.321Z,3.20
2019-05-28T08:04:26.333Z,3.50
2019-05-28T08:05:26.289Z,3.40
2019-05-28T08:06:26.283Z,3.30
2019-05-28T08:07:26.277Z,3.50
2019-05-28T08:08:26.270Z,3.70
2019-05-28T08:09:26.287Z,3.40
2019-05-28T08:10:29.304Z,3.30
2019-05-28T08:11:26.241Z,3.10
2019-05-28T08:12:26.215Z,3.40
2019-05-28T08:13:39.609Z,3.70
2019-05-28T08:14:27.217Z,3.50
2019-05-28T08:15:26.388Z,3.30
2019-05-28T08:16:26.173Z,3.60
2019-05-28T08:17:26.180Z,3.10
2019-05-28T08:18:26.167Z,3.20
2019-05-28T08:19:26.165Z,3.10
2019-05-28T08:20:26.118Z,3.50
2019-05-28T08:21:26.130Z,3.40
2019-05-28T08:22:40.855Z,3.20
2019-05-28T08:23:27.096Z,3.40
2019-05-28T08:24:26.103Z,3.50
2019-05-28T08:25:45.310Z,3.60
2019-05-28T08:26:27.065Z,4.30
2019-05-28T08:27:26.054Z,3.70
2019-05-28T08:28:26.045Z,3.20
2019-05-28T08:29:26.058Z,3.20
2019-05-28T08:30:26.037Z,3.30
2019-05-28T08:31:26.002Z,3.10
2019-05-28T08:32:26.006Z,3.50
2019-05-28T08:33:25.988Z,3.30
2019-05-28T08:34:25.989Z,3.30
2019-05-28T08:35:25.966Z,3.50
2019-05-28T08:36:25.952Z,3.10
2019-05-28T08:37:25.953Z,3.60
2019-05-28T08:38:25.940Z,3.30
2019-05-28T08:39:25.943Z,3.10
2019-05-28T08:40:25.922Z,3.30
2019-05-28T08:41:25.904Z,3.10
2019-05-28T08:42:25.905Z,3.60
2019-05-28T08:43:25.872Z,3.80
2019-05-28T08:44:25.886Z,3.30
2019-05-28T08:45:25.848Z,3.70
2019-05-28T08:46:25.854Z,3.40
2019-05-28T08:47:25.825Z,3.10
2019-05-28T08:48:25.825Z,3.50
2019-05-28T08:49:25.848Z,3.00
2019-05-28T08:50:34.342Z,3.70
2019-05-28T08:51:26.782Z,3.20
2019-05-28T08:52:25.774Z,3.20
2019-05-28T08:53:25.783Z,3.40
2019-05-28T08:54:25.765Z,3.30
2019-05-28T08:55:25.743Z,3.20
2019-05-28T08:56:25.736Z,3.50
2019-05-28T08:57:25.717Z,3.10
2019-05-28T08:58:25.697Z,3.10
2019-05-28T08:59:25.715Z,3.20
2019-05-28T09:00:25.688Z,2.90
2019-05-28T09:01:25.674Z,3.00
2019-05-28T09:02:28.322Z,2.60
2019-05-28T09:03:25.662Z,2.50
2019-05-28T09:04:25.658Z,2.70
2019-05-28T09:05:26.901Z,2.90
2019-05-28T09:06:27.271Z,2.80
2019-05-28T09:07:25.596Z,2.60
2019-05-28T09:08:38.351Z,2.80
2019-05-28T09:09:26.617Z,3.00
2019-05-28T09:10:25.568Z,2.70
2019-05-28T09:11:25.555Z,2.50
2019-05-28T09:12:25.559Z,2.50
2019-05-28T09:13:25.537Z,2.80
2019-05-28T09:14:25.548Z,2.70
2019-05-28T09:15:25.511Z,2.80
2019-05-28T09:16:25.528Z,2.90
2019-05-28T09:17:25.500Z,2.90
2019-05-28T09:18:25.482Z,2.50
2019-05-28T09:19:25.495Z,2.80
2019-05-28T09:20:25.476Z,2.70
2019-05-28T09:21:25.455Z,3.00
2019-05-28T09:22:26.522Z,3.00
2019-05-28T09:23:25.424Z,2.70
2019-05-28T09:24:27.743Z,2.80
2019-05-28T09:25:25.403Z,2.20
2019-05-28T09:26:25.392Z,2.70
2019-05-28T09:27:25.394Z,2.40
2019-05-28T09:28:30.007Z,2.80
2019-05-28T09:29:26.373Z,2.80
2019-05-28T09:30:25.351Z,2.50
2019-05-28T09:31:25.345Z,2.50
2019-05-28T09:32:25.333Z,2.60
2019-05-28T09:33:25.327Z,2.60
2019-05-28T09:34:25.342Z,2.70
2019-05-28T09:35:41.207Z,2.50
2019-05-28T09:36:26.275Z,2.60
2019-05-28T09:37:25.271Z,2.70
2019-05-28T09:38:25.283Z,2.70
2019-05-28T09:39:25.300Z,3.00
2019-05-28T09:40:25.240Z,2.60
2019-05-28T09:41:25.232Z,2.60
2019-05-28T09:42:25.231Z,2.30
2019-05-28T09:43:25.212Z,2.90
2019-05-28T09:44:25.227Z,2.90
2019-05-28T09:45:25.188Z,2.70
2019-05-28T09:46:25.183Z,2.80
2019-05-28T09:47:25.169Z,2.60
2019-05-28T09:48:25.177Z,2.60
2019-05-28T09:49:25.188Z,2.70
2019-05-28T09:50:30.698Z,2.50
2019-05-28T09:51:26.160Z,2.80
2019-05-28T09:52:25.126Z,2.70
2019-05-28T09:53:25.100Z,2.30
2019-05-28T09:54:25.140Z,2.70
2019-05-28T09:55:25.100Z,2.80
2019-05-28T09:56:25.092Z,2.40
2019-05-28T09:57:25.063Z,2.70
2019-05-28T09:58:25.041Z,2.70
2019-05-28T09:59:40.294Z,2.60
2019-05-28T10:00:26.009Z,2.60
2019-05-28T10:01:25.031Z,2.40
2019-05-28T10:02:25.004Z,2.80
2019-05-28T10:03:25.000Z,2.90
2019-05-28T10:04:43.844Z,2.40
2019-05-28T10:05:25.990Z,2.70
2019-05-28T10:06:36.591Z,2.30
2019-05-28T10:07:25.967Z,2.40
2019-05-28T10:08:24.958Z,2.60
2019-05-28T10:09:24.970Z,2.50
2019-05-28T10:10:24.936Z,2.00
2019-05-28T10:11:24.919Z,2.20
2019-05-28T10:12:24.902Z,2.60
2019-05-28T10:13:38.242Z,2.50
2019-05-28T10:14:25.885Z,2.50
2019-05-28T10:15:24.853Z,2.20
2019-05-28T10:16:24.872Z,2.20
2019-05-28T10:17:24.826Z,2.10
2019-05-28T10:18:24.811Z,2.00
2019-05-28T10:19:24.810Z,2.40
2019-05-28T10:20:24.863Z,2.10
2019-05-28T10:21:24.784Z,2.00
2019-05-28T10:22:24.781Z,2.40
2019-05-28T10:23:24.764Z,2.40
2019-05-28T10:24:24.756Z,2.30
2019-05-28T10:25:24.761Z,2.20
2019-05-28T10:26:24.730Z,2.10
2019-05-28T10:27:24.721Z,1.90
2019-05-28T10:28:24.718Z,1.90
2019-05-28T10:29:24.701Z,2.00
2019-05-28T10:30:24.706Z,2.20
2019-05-28T10:31:24.681Z,2.10
2019-05-28T10:32:24.688Z,2.10
2019-05-28T10:33:24.647Z,2.00
2019-05-28T10:34:24.651Z,2.20
2019-05-28T10:35:24.647Z,2.30
2019-05-28T10:36:35.176Z,2.10
2019-05-28T10:37:25.609Z,2.00
2019-05-28T10:38:24.622Z,1.90
2019-05-28T10:39:24.582Z,2.60
2019-05-28T10:40:24.584Z,2.20
2019-05-28T10:41:24.571Z,2.00
2019-05-28T10:42:24.560Z,1.90
2019-05-28T10:43:24.543Z,1.90
2019-05-28T10:44:24.551Z,1.90
2019-05-28T10:45:24.542Z,2.00
2019-05-28T10:46:24.501Z,1.90
2019-05-28T10:47:24.526Z,1.60
2019-05-28T10:48:24.524Z,1.90
2019-05-28T10:49:24.479Z,2.30
2019-05-28T10:50:24.489Z,2.00
2019-05-28T10:51:24.470Z,1.70
2019-05-28T10:52:24.446Z,1.70
2019-05-28T10:53:24.429Z,2.20
2019-05-28T10:54:24.432Z,2.00
2019-05-28T10:55:24.435Z,2.00
2019-05-28T10:56:24.427Z,2.00
2019-05-28T10:57:24.386Z,1.90
2019-05-28T10:58:24.371Z,2.50
2019-05-28T10:59:24.364Z,2.10
2019-05-28T11:00:24.420Z,2.00
2019-05-28T11:01:24.342Z,1.90
2019-05-28T11:02:24.346Z,2.60
2019-05-28T11:03:24.319Z,1.70
2019-05-28T11:04:24.304Z,2.00
2019-05-28T11:05:24.321Z,1.90
2019-05-28T11:06:24.289Z,2.20
2019-05-28T11:07:24.277Z,2.20
2019-05-28T11:08:24.285Z,2.10
2019-05-28T11:09:24.264Z,2.00
2019-05-28T11:10:25.030Z,1.80
2019-05-28T11:11:24.231Z,2.20
2019-05-28T11:12:24.221Z,2.20
2019-05-28T11:13:24.214Z,2.40
2019-05-28T11:14:24.205Z,2.10
2019-05-28T11:15:24.244Z,2.20
2019-05-28T11:16:24.181Z,2.40
2019-05-28T11:17:24.171Z,2.10
2019-05-28T11:18:24.157Z,2.10
2019-05-28T11:19:24.159Z,2.00
2019-05-28T11:20:24.147Z,2.00
2019-05-28T11:21:24.154Z,2.40
2019-05-28T11:22:24.110Z,2.30
2019-05-28T11:23:24.100Z,2.30
2019-05-28T11:24:24.086Z,2.10
2019-05-28T11:25:24.094Z,2.20
2019-05-28T11:26:24.072Z,2.10
2019-05-28T11:27:24.300Z,2.10
2019-05-28T11:28:24.041Z,2.20
2019-05-28T11:29:24.031Z,2.10
2019-05-28T11:30:24.041Z,2.30
2019-05-28T11:31:24.010Z,2.30
2019-05-28T11:32:24.011Z,2.90
2019-05-28T11:33:24.003Z,2.20
2019-05-28T11:34:24.007Z,2.40
2019-05-28T11:35:24.065Z,2.20
2019-05-28T11:36:23.958Z,2.30
2019-05-28T11:37:23.942Z,2.50
2019-05-28T11:38:23.939Z,2.20
2019-05-28T11:39:23.923Z,2.30
2019-05-28T11:40:23.955Z,2.30
2019-05-28T11:41:40.560Z,2.30
2019-05-28T11:42:24.889Z,2.10
2019-05-28T11:43:23.872Z,2.40
2019-05-28T11:44:23.862Z,2.10
2019-05-28T11:45:23.899Z,2.00
2019-05-28T11:46:23.841Z,2.20
2019-05-28T11:47:23.838Z,2.00
2019-05-28T11:48:23.821Z,2.10
2019-05-28T11:49:23.816Z,2.50
2019-05-28T11:50:23.839Z,2.10
2019-05-28T11:51:23.786Z,2.30
2019-05-28T11:52:23.780Z,2.20
2019-05-28T11:53:23.772Z,2.00
2019-05-28T11:54:23.770Z,2.30
2019-05-28T11:55:23.761Z,2.20
2019-05-28T11:56:23.761Z,1.90
2019-05-28T11:57:23.715Z,2.30
2019-05-28T11:58:23.732Z,1.90
2019-05-28T11:59:23.707Z,2.40
2019-05-28T12:00:23.721Z,2.00
2019-05-28T12:01:34.226Z,2.10
2019-05-28T12:02:24.661Z,2.30
2019-05-28T12:03:23.654Z,2.10
2019-05-28T12:04:23.658Z,2.10
2019-05-28T12:05:23.697Z,2.20
2019-05-28T12:06:23.623Z,2.30
2019-05-28T12:07:26.418Z,2.30
2019-05-28T12:08:23.599Z,2.80
2019-05-28T12:09:23.582Z,2.20
2019-05-28T12:10:23.617Z,2.00
2019-05-28T12:11:23.570Z,2.50
2019-05-28T12:12:23.573Z,2.70
2019-05-28T12:13:23.537Z,2.30
2019-05-28T12:14:23.563Z,2.20
2019-05-28T12:15:23.533Z,2.30
2019-05-28T12:16:23.653Z,2.40
2019-05-28T12:17:40.654Z,2.50
2019-05-28T12:18:24.513Z,1.90
2019-05-28T12:19:23.509Z,2.40
2019-05-28T12:20:23.468Z,2.30
2019-05-28T12:21:23.519Z,2.30
2019-05-28T12:22:23.449Z,1.90
2019-05-28T12:23:23.441Z,2.20
2019-05-28T12:24:27.856Z,1.90
2019-05-28T12:25:24.399Z,2.30
2019-05-28T12:26:23.419Z,2.00
2019-05-28T12:27:23.385Z,2.10
2019-05-28T12:28:37.007Z,2.50
2019-05-28T12:29:24.414Z,2.00
2019-05-28T12:30:23.356Z,2.10
2019-05-28T12:31:23.366Z,1.90
2019-05-28T12:32:23.364Z,2.20
2019-05-28T12:33:23.326Z,2.10
2019-05-28T12:34:23.320Z,2.10
2019-05-28T12:35:28.769Z,1.90
2019-05-28T12:36:24.327Z,2.30
2019-05-28T12:37:23.289Z,2.10
2019-05-28T12:38:23.261Z,2.30
2019-05-28T12:39:23.266Z,2.30
2019-05-28T12:40:23.264Z,2.50
2019-05-28T12:41:23.251Z,2.90
2019-05-28T12:42:23.218Z,2.20
2019-05-28T12:43:23.216Z,2.60
2019-05-28T12:44:23.197Z,2.20
2019-05-28T12:45:34.872Z,2.50
2019-05-28T12:46:24.218Z,2.60
2019-05-28T12:47:23.170Z,2.20
2019-05-28T12:48:23.208Z,2.40
2019-05-28T12:49:23.177Z,2.20
2019-05-28T12:50:23.172Z,2.70
2019-05-28T12:51:23.151Z,2.40
2019-05-28T12:52:23.120Z,2.40
2019-05-28T12:53:23.113Z,2.60
2019-05-28T12:54:23.125Z,2.50
2019-05-28T12:55:23.085Z,2.90
2019-05-28T12:56:23.083Z,2.40
2019-05-28T12:57:23.067Z,2.40
2019-05-28T12:58:40.865Z,2.40
2019-05-28T12:59:24.043Z,2.60
2019-05-28T13:00:23.028Z,2.40
2019-05-28T13:01:23.015Z,2.00
2019-05-28T13:02:22.994Z,2.10
2019-05-28T13:03:22.983Z,2.20
2019-05-28T13:04:22.985Z,2.60
2019-05-28T13:05:23.029Z,2.50
2019-05-28T13:06:22.990Z,2.50
2019-05-28T13:07:22.940Z,2.40
2019-05-28T13:08:22.930Z,2.30
2019-05-28T13:09:22.939Z,2.30
2019-05-28T13:10:22.921Z,2.20
2019-05-28T13:11:22.937Z,2.50
2019-05-28T13:12:22.907Z,2.80
2019-05-28T13:13:22.885Z,2.50
2019-05-28T13:14:22.891Z,2.40
2019-05-28T13:15:22.853Z,2.70
2019-05-28T13:16:22.883Z,2.60
2019-05-28T13:17:22.838Z,2.00
2019-05-28T13:18:22.823Z,2.00